CZ-0079 weather

Říčany
Central Bohemian Region, Czechia

Public forecast

Using degrees Celsius for public forecast. Weather courtesy of forecast.io.

METAR (pilot weather report)

Closest report is Kbely Air Base, 9.7 nm (18.0 km) NNW. Retrieved 2019/03/20 19:00 UTC (30 minutes ago):

LKKB 201900Z 15005KT CAVOK 07/M06 Q1033 NOSIG

TAF (pilot weather forecast)

Closest forecast is Kbely Air Base, 9.7 nm (18.0 km) NNW. Retrieved 2019/03/20 18:00 UTC (2 hours ago):

TAF LKKB 201700Z 2018/2118 32004KT CAVOK BECMG 2020/2023 22005KT BECMG 2112/2114 VRB02KT